createdAt,value
2019-05-10T00:00:07.554Z,99312.55
2019-05-10T00:02:54.037Z,99313.68
2019-05-10T00:05:39.973Z,99313.14
2019-05-10T00:08:36.474Z,99312.65
2019-05-10T00:11:32.813Z,99315.36
2019-05-10T00:14:20.876Z,99318.69
2019-05-10T00:16:49.715Z,99317.06
2019-05-10T00:19:16.777Z,99327.00
2019-05-10T00:21:43.954Z,99327.67
2019-05-10T00:24:10.987Z,99322.91
2019-05-10T00:26:38.037Z,99328.08
2019-05-10T00:29:05.498Z,99337.73
2019-05-10T00:31:32.629Z,99337.84
2019-05-10T00:33:59.762Z,99333.33
2019-05-10T00:36:26.957Z,99341.81
2019-05-10T00:38:55.214Z,99348.39
2019-05-10T00:41:22.269Z,99346.63
2019-05-10T00:43:49.507Z,99336.28
2019-05-10T00:46:16.564Z,99351.81
2019-05-10T00:48:43.645Z,99354.23
2019-05-10T00:51:10.666Z,99355.51
2019-05-10T00:53:39.651Z,99352.44
2019-05-10T00:56:06.681Z,99359.84
2019-05-10T00:58:33.749Z,99356.27
2019-05-10T01:01:00.900Z,99355.95
2019-05-10T01:03:28.012Z,99361.84
2019-05-10T01:05:55.080Z,99369.75
2019-05-10T01:08:22.166Z,99358.51
2019-05-10T01:10:49.309Z,99362.59
2019-05-10T01:13:16.703Z,99367.39
2019-05-10T01:15:46.421Z,99368.05
2019-05-10T01:18:13.123Z,99366.19
2019-05-10T01:20:40.210Z,99371.48
2019-05-10T01:23:07.241Z,99379.64
2019-05-10T01:25:36.297Z,99376.47
2019-05-10T01:28:03.512Z,99387.70
2019-05-10T01:30:30.689Z,99388.50
2019-05-10T01:32:57.898Z,99390.23
2019-05-10T01:35:25.050Z,99392.63
2019-05-10T01:37:52.415Z,99396.20
2019-05-10T01:40:19.559Z,99401.69
2019-05-10T01:42:46.954Z,99407.28
2019-05-10T01:45:14.194Z,99409.52
2019-05-10T01:47:41.252Z,99410.73
2019-05-10T01:50:08.483Z,99411.12
2019-05-10T01:52:35.586Z,99409.27
2019-05-10T01:55:03.210Z,99403.09
2019-05-10T01:57:30.291Z,99402.73
2019-05-10T01:59:57.537Z,99409.34
2019-05-10T02:02:24.542Z,99404.20
2019-05-10T02:04:53.402Z,99406.35
2019-05-10T02:07:20.446Z,99406.47
2019-05-10T02:09:47.572Z,99412.50
2019-05-10T02:12:14.864Z,99407.88
2019-05-10T02:14:41.918Z,99421.20
2019-05-10T02:17:09.058Z,99417.71
2019-05-10T02:19:36.116Z,99417.56
2019-05-10T02:22:03.528Z,99422.83
2019-05-10T02:24:30.606Z,99430.14
2019-05-10T02:26:57.883Z,99429.92
2019-05-10T02:29:24.934Z,99436.41
2019-05-10T02:31:51.991Z,99435.72
2019-05-10T02:34:19.181Z,99437.16
2019-05-10T02:36:46.209Z,99431.38
2019-05-10T02:39:13.266Z,99426.78
2019-05-10T02:41:40.319Z,99433.50
2019-05-10T02:44:07.389Z,99432.81
2019-05-10T02:46:34.549Z,99437.03
2019-05-10T02:49:01.632Z,99435.27
2019-05-10T02:51:28.678Z,99439.48
2019-05-10T02:53:55.937Z,99443.13
2019-05-10T02:56:30.568Z,99444.73
2019-05-10T02:58:54.391Z,99451.02
2019-05-10T03:01:24.027Z,99450.83
2019-05-10T03:03:53.619Z,99447.22
2019-05-10T03:06:22.872Z,99452.27
2019-05-10T03:08:51.220Z,99454.78
2019-05-10T03:11:18.604Z,99458.70
2019-05-10T03:13:48.665Z,99455.22
2019-05-10T03:16:18.681Z,99462.16
2019-05-10T03:18:47.839Z,99470.06
2019-05-10T03:21:16.865Z,99468.46
2019-05-10T03:23:43.954Z,99463.41
2019-05-10T03:26:11.019Z,99477.77
2019-05-10T03:28:38.087Z,99472.34
2019-05-10T03:31:05.399Z,99471.45
2019-05-10T03:33:32.465Z,99476.08
2019-05-10T03:35:59.583Z,99474.22
2019-05-10T03:38:28.640Z,99478.66
2019-05-10T03:40:55.705Z,99478.58
2019-05-10T03:43:22.777Z,99491.37
2019-05-10T03:45:49.867Z,99484.80
2019-05-10T03:48:16.975Z,99489.14
2019-05-10T03:50:44.101Z,99492.82
2019-05-10T03:53:11.181Z,99493.91
2019-05-10T03:55:38.233Z,99501.21
2019-05-10T03:58:05.473Z,99501.02
2019-05-10T04:00:32.491Z,99500.73
2019-05-10T04:02:59.548Z,99505.83
2019-05-10T04:05:26.603Z,99506.95
2019-05-10T04:07:53.674Z,99506.08
2019-05-10T04:10:21.193Z,99508.33
2019-05-10T04:12:49.784Z,99504.63
2019-05-10T04:15:16.980Z,99515.36
2019-05-10T04:17:44.072Z,99513.97
2019-05-10T04:20:11.330Z,99522.61
2019-05-10T04:22:38.382Z,99525.52
2019-05-10T04:25:06.094Z,99523.30
2019-05-10T04:27:33.460Z,99528.03
2019-05-10T04:30:00.659Z,99533.28
2019-05-10T04:32:30.525Z,99533.80
2019-05-10T04:34:57.615Z,99536.83
2019-05-10T04:37:24.678Z,99534.45
2019-05-10T04:39:51.731Z,99540.74
2019-05-10T04:42:18.754Z,99546.94
2019-05-10T04:44:46.032Z,99539.89
2019-05-10T04:47:13.095Z,99545.63
2019-05-10T04:49:41.359Z,99544.50
2019-05-10T04:52:11.184Z,99550.91
2019-05-10T04:54:38.290Z,99556.44
2019-05-10T04:57:05.419Z,99554.87
2019-05-10T04:59:32.475Z,99551.30
2019-05-10T05:01:59.687Z,99559.59
2019-05-10T05:04:26.883Z,99559.33
2019-05-10T05:06:54.025Z,99559.58
2019-05-10T05:09:21.085Z,99555.80
2019-05-10T05:11:48.129Z,99564.33
2019-05-10T05:14:15.186Z,99563.23
2019-05-10T05:16:42.248Z,99567.52
2019-05-10T05:19:09.330Z,99572.12
2019-05-10T05:21:36.434Z,99581.73
2019-05-10T05:24:03.485Z,99580.80
2019-05-10T05:26:30.649Z,99579.68
2019-05-10T05:28:57.726Z,99584.31
2019-05-10T05:31:24.797Z,99579.32
2019-05-10T05:33:51.851Z,99582.69
2019-05-10T05:36:18.936Z,99584.59
2019-05-10T05:38:46.930Z,99586.47
2019-05-10T05:41:15.124Z,99582.77
2019-05-10T05:43:46.512Z,99595.33
2019-05-10T05:46:14.560Z,99594.66
2019-05-10T05:48:41.960Z,99596.39
2019-05-10T05:51:09.035Z,99603.95
2019-05-10T05:53:42.447Z,99594.52
2019-05-10T05:56:12.668Z,99601.56
2019-05-10T05:58:44.572Z,99602.60
2019-05-10T06:01:07.728Z,99604.48
2019-05-10T06:03:34.790Z,99612.69
2019-05-10T06:06:15.531Z,99597.02
2019-05-10T06:08:32.202Z,99609.66
2019-05-10T06:11:00.061Z,99609.98
2019-05-10T06:13:30.341Z,99605.21
2019-05-10T06:15:59.895Z,99609.63
2019-05-10T06:18:25.547Z,99616.29
2019-05-10T06:20:56.868Z,99609.08
2019-05-10T06:23:29.332Z,99612.33
2019-05-10T06:25:53.939Z,99607.45
2019-05-10T06:28:28.677Z,99606.77
2019-05-10T06:30:50.044Z,99614.87
2019-05-10T06:33:17.085Z,99611.66
2019-05-10T06:35:44.135Z,99611.57
2019-05-10T06:38:11.217Z,99618.23
2019-05-10T06:40:46.537Z,99614.58
2019-05-10T06:43:13.515Z,99618.30
2019-05-10T06:45:37.813Z,99625.28
2019-05-10T06:48:04.987Z,99620.19
2019-05-10T06:50:32.064Z,99625.64
2019-05-10T06:53:00.375Z,99622.89
2019-05-10T06:55:28.047Z,99628.16
2019-05-10T06:57:59.480Z,99632.84
2019-05-10T07:00:24.143Z,99632.59
2019-05-10T07:02:51.173Z,99625.52
2019-05-10T07:05:19.458Z,99640.31
2019-05-10T07:07:46.737Z,99635.98
2019-05-10T07:10:18.948Z,99643.56
2019-05-10T07:12:42.956Z,99640.95
2019-05-10T07:15:12.059Z,99638.77
2019-05-10T07:17:45.311Z,99633.26
2019-05-10T07:20:08.167Z,99637.16
2019-05-10T07:22:35.189Z,99629.25
2019-05-10T07:25:04.772Z,99637.96
2019-05-10T07:27:37.047Z,99638.23
2019-05-10T07:30:01.985Z,99643.66
2019-05-10T07:32:30.580Z,99653.35
2019-05-10T07:35:00.817Z,99647.75
2019-05-10T07:37:28.856Z,99650.75
2019-05-10T07:39:55.930Z,99652.30
2019-05-10T07:42:23.112Z,99657.87
2019-05-10T07:44:50.169Z,99656.92
2019-05-10T07:47:23.942Z,99659.77
2019-05-10T07:49:48.342Z,99658.20
2019-05-10T07:52:15.494Z,99659.19
2019-05-10T07:54:45.250Z,99662.66
2019-05-10T07:57:12.523Z,99661.24
2019-05-10T07:59:50.172Z,99653.11
2019-05-10T08:02:13.071Z,99656.41
2019-05-10T08:04:38.477Z,99663.02
2019-05-10T08:07:09.792Z,99650.96
2019-05-10T08:09:51.224Z,99670.55
2019-05-10T08:12:35.225Z,99668.89
2019-05-10T08:15:02.037Z,99674.02
2019-05-10T08:17:29.086Z,99671.58
2019-05-10T08:19:56.421Z,99669.91
2019-05-10T08:22:23.465Z,99678.43
2019-05-10T08:24:54.473Z,99682.95
2019-05-10T08:27:19.490Z,99685.22
2019-05-10T08:29:52.981Z,99685.45
2019-05-10T08:32:19.391Z,99685.67
2019-05-10T08:34:52.091Z,99680.13
2019-05-10T08:37:19.403Z,99685.27
2019-05-10T08:39:47.876Z,99681.22
2019-05-10T08:42:32.115Z,99686.91
2019-05-10T08:44:42.740Z,99696.34
2019-05-10T08:47:16.183Z,99684.53
2019-05-10T08:49:52.227Z,99696.05
2019-05-10T08:52:07.808Z,99698.27
2019-05-10T08:54:34.854Z,99711.73
2019-05-10T08:57:05.390Z,99703.95
2019-05-10T08:59:31.224Z,99708.45
2019-05-10T09:01:58.286Z,99717.47
2019-05-10T09:04:33.465Z,99711.14
2019-05-10T09:06:59.809Z,99711.52
2019-05-10T09:09:25.097Z,99707.22
2019-05-10T09:11:57.837Z,99714.03
2019-05-10T09:14:24.194Z,99719.01
2019-05-10T09:17:00.729Z,99710.56
2019-05-10T09:19:27.618Z,99717.73
2019-05-10T09:21:52.829Z,99720.59
2019-05-10T09:24:18.513Z,99720.89
2019-05-10T09:26:51.609Z,99717.52
2019-05-10T09:29:16.780Z,99728.05
2019-05-10T09:31:50.467Z,99729.81
2019-05-10T09:34:14.596Z,99731.77
2019-05-10T09:36:46.714Z,99722.41
2019-05-10T09:39:17.545Z,99737.00
2019-05-10T09:41:42.159Z,99719.27
2019-05-10T09:44:10.086Z,99731.48
2019-05-10T09:46:37.192Z,99735.61
2019-05-10T09:49:14.076Z,99736.45
2019-05-10T09:51:33.356Z,99732.15
2019-05-10T09:54:00.634Z,99733.19
2019-05-10T09:56:36.399Z,99739.05
2019-05-10T09:58:58.464Z,99730.27
2019-05-10T10:01:28.199Z,99738.98
2019-05-10T10:03:58.351Z,99742.66
2019-05-10T10:06:29.526Z,99744.91
2019-05-10T10:08:57.777Z,99738.32
2019-05-10T10:11:27.645Z,99735.84
2019-05-10T10:13:59.174Z,99739.55
2019-05-10T10:16:23.482Z,99736.30
2019-05-10T10:18:50.663Z,99731.70
2019-05-10T10:21:18.942Z,99729.27
2019-05-10T10:23:46.997Z,99728.45
2019-05-10T10:26:20.812Z,99729.88
2019-05-10T10:28:43.152Z,99727.08
2019-05-10T10:31:10.172Z,99732.24
2019-05-10T10:33:37.933Z,99735.36
2019-05-10T10:36:09.918Z,99731.27
2019-05-10T10:38:37.178Z,99732.50
2019-05-10T10:41:03.756Z,99727.34
2019-05-10T10:43:31.210Z,99737.25
2019-05-10T10:45:58.523Z,99734.74
2019-05-10T10:48:28.275Z,99736.69
2019-05-10T10:50:56.219Z,99734.18
2019-05-10T10:53:23.623Z,99724.35
2019-05-10T10:55:54.581Z,99721.48
2019-05-10T10:58:19.911Z,99727.55
2019-05-10T11:00:48.107Z,99728.90
2019-05-10T11:03:15.635Z,99726.09
2019-05-10T11:05:43.010Z,99725.75
2019-05-10T11:08:12.125Z,99719.27
2019-05-10T11:10:40.488Z,99728.02
2019-05-10T11:13:14.024Z,99728.50
2019-05-10T11:15:38.637Z,99724.61
2019-05-10T11:18:07.192Z,99729.43
2019-05-10T11:20:35.382Z,99722.81
2019-05-10T11:23:02.431Z,99723.11
2019-05-10T11:25:30.000Z,99719.47
2019-05-10T11:27:59.272Z,99721.45
2019-05-10T11:30:26.056Z,99715.45
2019-05-10T11:32:53.100Z,99706.34
2019-05-10T11:35:30.312Z,99714.21
2019-05-10T11:37:50.890Z,99706.83
2019-05-10T11:40:27.760Z,99706.34
2019-05-10T11:42:51.035Z,99710.94
2019-05-10T11:45:20.905Z,99705.36
2019-05-10T11:47:53.393Z,99707.60
2019-05-10T11:50:28.980Z,99711.74
2019-05-10T11:52:46.373Z,99702.88
2019-05-10T11:55:13.518Z,99708.99
2019-05-10T11:57:44.174Z,99708.53
2019-05-10T12:00:23.886Z,99701.69
2019-05-10T12:03:01.092Z,99700.20
2019-05-10T12:05:17.753Z,99704.93
2019-05-10T12:10:16.824Z,99701.81
2019-05-10T12:12:54.055Z,99694.13
2019-05-10T12:15:24.511Z,99698.98
2019-05-10T12:17:47.634Z,99694.98
2019-05-10T12:20:16.868Z,99691.41
2019-05-10T12:22:47.429Z,99691.20
2019-05-10T12:25:35.909Z,99695.89
2019-05-10T12:26:49.399Z,99703.41
2019-05-10T12:27:48.686Z,99693.62
2019-05-10T12:30:15.922Z,99687.77
2019-05-10T12:32:55.624Z,99690.25
2019-05-10T12:35:11.886Z,99696.34
2019-05-10T12:37:39.562Z,99690.36
2019-05-10T12:40:11.880Z,99688.95
2019-05-10T12:42:37.132Z,99693.77
2019-05-10T12:45:11.695Z,99691.56
2019-05-10T12:47:41.284Z,99695.50
2019-05-10T12:50:09.185Z,99696.37
2019-05-10T12:52:36.329Z,99690.23
2019-05-10T12:55:03.632Z,99695.16
2019-05-10T12:57:30.838Z,99702.33
2019-05-10T12:59:58.236Z,99698.72
2019-05-10T13:02:25.572Z,99696.42
2019-05-10T13:04:54.150Z,99705.59
2019-05-10T13:07:21.500Z,99704.59
2019-05-10T13:09:50.151Z,99699.94
2019-05-10T13:12:17.587Z,99704.16
2019-05-10T13:14:46.585Z,99692.52
2019-05-10T13:17:16.884Z,99690.92
2019-05-10T13:19:42.658Z,99697.47
2019-05-10T13:22:09.721Z,99699.59
2019-05-10T13:24:36.798Z,99694.77
2019-05-10T13:27:04.466Z,99698.25
2019-05-10T13:29:31.536Z,99698.33
2019-05-10T13:31:59.593Z,99699.05
2019-05-10T13:34:26.685Z,99686.04
2019-05-10T13:36:53.762Z,99693.83
2019-05-10T13:39:25.704Z,99699.47
2019-05-10T13:41:49.983Z,99686.66
2019-05-10T13:44:17.013Z,99695.69
2019-05-10T13:46:44.064Z,99703.80
2019-05-10T13:49:12.587Z,99703.59
2019-05-10T13:51:39.935Z,99694.44
2019-05-10T13:54:07.002Z,99704.59
2019-05-10T13:56:34.150Z,99691.22
2019-05-10T13:59:15.359Z,99683.80
2019-05-10T14:01:34.323Z,99685.00
2019-05-10T14:04:10.661Z,99686.70
2019-05-10T14:06:49.503Z,99689.92
2019-05-10T14:10:10.826Z,99681.82
2019-05-10T14:15:54.307Z,99695.09
2019-05-10T14:18:23.203Z,99707.06
2019-05-10T14:20:53.969Z,99702.82
2019-05-10T14:23:22.450Z,99700.19
2019-05-10T14:25:49.671Z,99696.20
2019-05-10T14:28:17.464Z,99694.05
2019-05-10T14:30:46.892Z,99698.19
2019-05-10T14:33:17.237Z,99690.22
2019-05-10T14:35:44.646Z,99699.39
2019-05-10T14:38:12.005Z,99687.26
2019-05-10T14:40:39.110Z,99694.75
2019-05-10T14:43:06.184Z,99684.66
2019-05-10T14:45:33.248Z,99687.17
2019-05-10T14:48:00.432Z,99686.98
2019-05-10T14:50:28.480Z,99693.27
2019-05-10T14:52:55.750Z,99691.03
2019-05-10T14:55:28.041Z,99686.84
2019-05-10T14:57:51.853Z,99686.80
2019-05-10T15:00:28.234Z,99691.70
2019-05-10T15:03:19.276Z,99690.82
2019-05-10T15:05:55.614Z,99690.27
2019-05-10T15:08:20.270Z,99688.20
2019-05-10T15:10:47.297Z,99695.64
2019-05-10T15:13:19.578Z,99689.11
2019-05-10T15:15:43.449Z,99698.20
2019-05-10T15:18:10.554Z,99698.38
2019-05-10T15:20:37.609Z,99700.59
2019-05-10T15:23:11.598Z,99707.22
2019-05-10T15:25:55.451Z,99700.71
2019-05-10T15:28:07.843Z,99704.35
2019-05-10T15:30:39.322Z,99707.75
2019-05-10T15:33:04.203Z,99706.33
2019-05-10T15:35:32.708Z,99708.62
2019-05-10T15:37:59.824Z,99703.55
2019-05-10T15:40:26.882Z,99706.78
2019-05-10T15:42:53.971Z,99706.22
2019-05-10T15:45:21.344Z,99697.05
2019-05-10T15:47:51.742Z,99704.54
2019-05-10T15:50:18.767Z,99701.77
2019-05-10T15:52:48.529Z,99702.67
2019-05-10T15:55:16.429Z,99704.30
2019-05-10T15:57:44.416Z,99706.50
2019-05-10T16:00:11.737Z,99703.13
2019-05-10T16:02:38.917Z,99701.54
2019-05-10T16:05:23.212Z,99704.61
2019-05-10T16:07:51.605Z,99707.75
2019-05-10T16:10:28.293Z,99702.83
2019-05-10T16:12:55.733Z,99704.52
2019-05-10T16:15:22.791Z,99707.58
2019-05-10T16:17:53.649Z,99711.95
2019-05-10T16:20:22.876Z,99714.56
2019-05-10T16:22:51.089Z,99716.49
2019-05-10T16:25:18.162Z,99725.19
2019-05-10T16:27:45.269Z,99724.58
2019-05-10T16:30:17.827Z,99721.61
2019-05-10T16:32:41.957Z,99705.72
2019-05-10T16:35:14.592Z,99711.40
2019-05-10T16:37:39.281Z,99712.31
2019-05-10T16:40:07.250Z,99702.68
2019-05-10T16:42:35.891Z,99702.34
2019-05-10T16:45:03.651Z,99703.34
2019-05-10T16:47:31.072Z,99700.41
2019-05-10T16:49:58.236Z,99706.40
2019-05-10T16:52:26.329Z,99712.34
2019-05-10T16:54:57.871Z,99708.34
2019-05-10T16:57:23.651Z,99709.40
2019-05-10T16:59:50.906Z,99705.28
2019-05-10T17:02:21.351Z,99708.19
2019-05-10T17:04:50.304Z,99717.40
2019-05-10T17:07:20.478Z,99719.64
2019-05-10T17:10:01.098Z,99718.33
2019-05-10T17:16:21.581Z,99717.96
2019-05-10T17:18:49.924Z,99713.69
2019-05-10T17:21:17.816Z,99721.26
2019-05-10T17:23:46.829Z,99718.84
2019-05-10T17:26:14.090Z,99721.12
2019-05-10T17:28:41.271Z,99720.56
2019-05-10T17:31:09.713Z,99717.90
2019-05-10T17:33:42.672Z,99707.26
2019-05-10T17:36:08.843Z,99701.33
2019-05-10T17:38:35.570Z,99703.79
2019-05-10T17:41:02.684Z,99697.27
2019-05-10T17:43:29.955Z,99699.41
2019-05-10T17:45:57.021Z,99701.85
2019-05-10T17:48:25.136Z,99701.63
2019-05-10T17:50:52.317Z,99697.62
2019-05-10T17:53:22.347Z,99691.05
2019-05-10T17:55:55.860Z,99681.70
2019-05-10T17:58:19.212Z,99681.91
2019-05-10T18:00:46.368Z,99681.57
2019-05-10T18:03:14.860Z,99682.61
2019-05-10T18:05:46.591Z,99672.45
2019-05-10T18:08:11.285Z,99678.05
2019-05-10T18:10:38.883Z,99682.16
2019-05-10T18:13:06.169Z,99679.02
2019-05-10T18:15:34.913Z,99681.70
2019-05-10T18:18:02.823Z,99680.95
2019-05-10T18:20:41.026Z,99679.95
2019-05-10T18:23:00.257Z,99683.17
2019-05-10T18:25:29.327Z,99685.38
2019-05-10T18:27:58.485Z,99680.69
2019-05-10T18:30:25.625Z,99686.42
2019-05-10T18:33:11.628Z,99691.16
2019-05-10T18:35:35.541Z,99697.75
2019-05-10T18:38:21.234Z,99704.35
2019-05-10T18:41:19.069Z,99710.64
2019-05-10T18:43:58.240Z,99715.06
2019-05-10T18:46:29.794Z,99729.70
2019-05-10T18:49:06.811Z,99732.74
2019-05-10T18:51:36.146Z,99726.42
2019-05-10T18:54:11.661Z,99729.63
2019-05-10T18:56:54.780Z,99734.33
2019-05-10T18:59:22.075Z,99739.87
2019-05-10T19:01:51.146Z,99734.75
2019-05-10T19:04:19.200Z,99739.17
2019-05-10T19:06:49.869Z,99741.53
2019-05-10T19:09:15.282Z,99746.88
2019-05-10T19:11:42.362Z,99747.48
2019-05-10T19:14:11.647Z,99749.19
2019-05-10T19:16:39.004Z,99746.31
2019-05-10T19:19:09.442Z,99744.65
2019-05-10T19:21:37.997Z,99750.98
2019-05-10T19:24:05.583Z,99752.30
2019-05-10T19:26:32.824Z,99756.75
2019-05-10T19:29:05.379Z,99754.65
2019-05-10T19:31:31.531Z,99756.44
2019-05-10T19:33:59.583Z,99757.94
2019-05-10T19:36:28.562Z,99758.65
2019-05-10T19:38:55.762Z,99763.95
2019-05-10T19:41:25.569Z,99767.12
2019-05-10T19:43:55.826Z,99766.23
2019-05-10T19:46:22.824Z,99763.97
2019-05-10T19:48:50.250Z,99771.25
2019-05-10T19:51:22.865Z,99773.50
2019-05-10T19:53:50.153Z,99785.05
2019-05-10T19:56:21.429Z,99784.66
2019-05-10T19:58:49.502Z,99786.61
2019-05-10T20:01:16.705Z,99796.08
2019-05-10T20:03:43.778Z,99797.28
2019-05-10T20:06:11.604Z,99803.76
2019-05-10T20:08:38.739Z,99804.91
2019-05-10T20:11:06.007Z,99807.77
2019-05-10T20:13:33.093Z,99811.38
2019-05-10T20:16:01.351Z,99804.83
2019-05-10T20:18:28.734Z,99807.28
2019-05-10T20:20:55.833Z,99805.41
2019-05-10T20:23:23.030Z,99806.43
2019-05-10T20:25:50.343Z,99789.52
2019-05-10T20:28:20.484Z,99795.41
2019-05-10T20:30:47.674Z,99787.29
2019-05-10T20:33:16.856Z,99782.18
2019-05-10T20:35:45.583Z,99779.02
2019-05-10T20:38:12.731Z,99773.70
2019-05-10T20:40:39.869Z,99778.11
2019-05-10T20:43:07.364Z,99778.11
2019-05-10T20:45:34.452Z,99779.27
2019-05-10T20:48:02.528Z,99778.51
2019-05-10T20:50:30.772Z,99779.31
2019-05-10T20:52:57.879Z,99786.15
2019-05-10T20:55:24.997Z,99786.40
2019-05-10T20:57:52.399Z,99793.50
2019-05-10T21:00:23.806Z,99795.47
2019-05-10T21:02:50.917Z,99793.25
2019-05-10T21:05:18.009Z,99791.68
2019-05-10T21:07:45.597Z,99795.73
2019-05-10T21:10:13.338Z,99796.25
2019-05-10T21:12:40.637Z,99802.55
2019-05-10T21:15:10.658Z,99795.07
2019-05-10T21:17:38.057Z,99798.71
2019-05-10T21:20:07.954Z,99802.52
2019-05-10T21:22:36.459Z,99804.18
2019-05-10T21:25:04.186Z,99797.31
2019-05-10T21:27:31.977Z,99793.05
2019-05-10T21:30:01.750Z,99799.58
2019-05-10T21:32:49.030Z,99790.59
2019-05-10T21:35:16.122Z,99787.91
2019-05-10T21:37:43.518Z,99787.56
2019-05-10T21:40:10.925Z,99788.45
2019-05-10T21:42:39.324Z,99786.92
2019-05-10T21:45:06.992Z,99777.11
2019-05-10T21:47:34.243Z,99775.45
2019-05-10T21:50:01.323Z,99769.70
2019-05-10T21:52:28.382Z,99763.41
2019-05-10T21:54:55.589Z,99761.05
2019-05-10T21:57:22.662Z,99760.05
2019-05-10T21:59:51.002Z,99755.33
2019-05-10T22:02:20.982Z,99755.64
2019-05-10T22:04:50.766Z,99751.33
2019-05-10T22:07:18.399Z,99751.00
2019-05-10T22:09:45.954Z,99740.09
2019-05-10T22:12:13.335Z,99735.30
2019-05-10T22:14:40.479Z,99739.83
2019-05-10T22:17:07.646Z,99732.54
2019-05-10T22:19:34.733Z,99727.02
2019-05-10T22:22:02.480Z,99722.45
2019-05-10T22:24:30.846Z,99716.34
2019-05-10T22:26:57.927Z,99710.20
2019-05-10T22:29:25.017Z,99715.13
2019-05-10T22:31:52.523Z,99708.23
2019-05-10T22:34:19.754Z,99709.62
2019-05-10T22:36:49.218Z,99706.17
2019-05-10T22:39:17.432Z,99703.56
2019-05-10T22:41:44.568Z,99693.04
2019-05-10T22:44:13.155Z,99683.02
2019-05-10T22:46:40.291Z,99687.42
2019-05-10T22:49:07.365Z,99678.59
2019-05-10T22:51:34.571Z,99676.78
2019-05-10T22:54:01.676Z,99670.55
2019-05-10T22:56:37.417Z,99683.04
2019-05-10T22:59:05.578Z,99676.26
2019-05-10T23:01:32.900Z,99663.48
2019-05-10T23:04:00.018Z,99671.28
2019-05-10T23:06:27.084Z,99671.82
2019-05-10T23:08:54.284Z,99660.97
2019-05-10T23:11:21.379Z,99658.72
2019-05-10T23:13:48.488Z,99667.11
2019-05-10T23:16:15.678Z,99667.92
2019-05-10T23:18:42.911Z,99671.82
2019-05-10T23:21:11.034Z,99663.25
2019-05-10T23:23:38.137Z,99654.64
2019-05-10T23:26:05.338Z,99642.80
2019-05-10T23:28:34.579Z,99638.28
2019-05-10T23:31:04.463Z,99650.13
2019-05-10T23:33:31.565Z,99639.90
2019-05-10T23:36:02.322Z,99627.16
2019-05-10T23:38:29.483Z,99631.17
2019-05-10T23:40:56.560Z,99636.86
2019-05-10T23:43:23.710Z,99625.06
2019-05-10T23:45:51.248Z,99616.52
2019-05-10T23:48:18.331Z,99621.45
2019-05-10T23:50:45.389Z,99628.00
2019-05-10T23:53:12.449Z,99632.20
2019-05-10T23:55:39.613Z,99631.83
2019-05-10T23:58:06.650Z,99629.38
